sensor_id;sensor_type;location;lat;lon;timestamp;temperature;humidity
22290;DHT22;11313;50.116;8.424;2022-09-09T00:04:37;24.90;54.10
22290;DHT22;11313;50.116;8.424;2022-09-09T00:07:08;24.90;54.00
22290;DHT22;11313;50.116;8.424;2022-09-09T00:10:03;24.90;54.00
22290;DHT22;11313;50.116;8.424;2022-09-09T00:15:12;24.90;54.00
22290;DHT22;11313;50.116;8.424;2022-09-09T00:17:42;24.90;54.00
22290;DHT22;11313;50.116;8.424;2022-09-09T00:20:35;25.00;54.10
22290;DHT22;11313;50.116;8.424;2022-09-09T00:23:14;25.00;54.10
22290;DHT22;11313;50.116;8.424;2022-09-09T00:25:51;25.00;54.10
22290;DHT22;11313;50.116;8.424;2022-09-09T00:28:22;25.00;54.00
22290;DHT22;11313;50.116;8.424;2022-09-09T00:30:48;25.00;54.00
22290;DHT22;11313;50.116;8.424;2022-09-09T00:33:24;25.00;54.10
22290;DHT22;11313;50.116;8.424;2022-09-09T00:35:54;25.00;54.10
22290;DHT22;11313;50.116;8.424;2022-09-09T00:38:35;25.00;54.10
22290;DHT22;11313;50.116;8.424;2022-09-09T00:41:18;25.00;54.10
22290;DHT22;11313;50.116;8.424;2022-09-09T00:43:55;25.00;54.10
22290;DHT22;11313;50.116;8.424;2022-09-09T00:52:05;25.00;54.10
22290;DHT22;11313;50.116;8.424;2022-09-09T00:54:46;25.00;54.00
22290;DHT22;11313;50.116;8.424;2022-09-09T00:59:52;25.00;54.10
22290;DHT22;11313;50.116;8.424;2022-09-09T01:02:27;25.00;54.00
22290;DHT22;11313;50.116;8.424;2022-09-09T01:04:54;25.00;54.10
22290;DHT22;11313;50.116;8.424;2022-09-09T01:07:20;25.00;54.10
22290;DHT22;11313;50.116;8.424;2022-09-09T01:09:55;25.00;54.10
22290;DHT22;11313;50.116;8.424;2022-09-09T01:20:15;25.00;54.00
22290;DHT22;11313;50.116;8.424;2022-09-09T01:23:03;25.00;54.00
22290;DHT22;11313;50.116;8.424;2022-09-09T01:28:34;25.00;54.10
22290;DHT22;11313;50.116;8.424;2022-09-09T01:31:04;25.00;54.10
22290;DHT22;11313;50.116;8.424;2022-09-09T01:33:30;25.00;54.10
22290;DHT22;11313;50.116;8.424;2022-09-09T01:36:02;25.00;54.10
22290;DHT22;11313;50.116;8.424;2022-09-09T01:38:30;25.00;54.10
22290;DHT22;11313;50.116;8.424;2022-09-09T01:40:56;25.00;54.00
22290;DHT22;11313;50.116;8.424;2022-09-09T01:43:24;25.00;54.00
22290;DHT22;11313;50.116;8.424;2022-09-09T01:45:53;25.00;54.00
22290;DHT22;11313;50.116;8.424;2022-09-09T01:48:21;25.00;54.10
22290;DHT22;11313;50.116;8.424;2022-09-09T01:50:47;25.00;54.00
22290;DHT22;11313;50.116;8.424;2022-09-09T01:53:15;25.00;54.00
22290;DHT22;11313;50.116;8.424;2022-09-09T01:55:56;25.10;54.10
22290;DHT22;11313;50.116;8.424;2022-09-09T02:03:52;25.00;54.00
22290;DHT22;11313;50.116;8.424;2022-09-09T02:08:49;25.00;54.10
22290;DHT22;11313;50.116;8.424;2022-09-09T02:11:21;25.00;54.10
22290;DHT22;11313;50.116;8.424;2022-09-09T02:13:48;25.00;54.10
22290;DHT22;11313;50.116;8.424;2022-09-09T02:19:17;25.00;54.10
22290;DHT22;11313;50.116;8.424;2022-09-09T02:21:53;25.00;54.10
22290;DHT22;11313;50.116;8.424;2022-09-09T02:24:20;25.10;54.20
22290;DHT22;11313;50.116;8.424;2022-09-09T02:26:49;25.00;54.10
22290;DHT22;11313;50.116;8.424;2022-09-09T02:29:27;25.00;54.10
22290;DHT22;11313;50.116;8.424;2022-09-09T02:31:59;25.00;54.10
22290;DHT22;11313;50.116;8.424;2022-09-09T02:34:29;25.00;54.10
22290;DHT22;11313;50.116;8.424;2022-09-09T02:36:57;25.00;54.10
22290;DHT22;11313;50.116;8.424;2022-09-09T02:39:25;25.00;54.10
22290;DHT22;11313;50.116;8.424;2022-09-09T02:41:50;25.00;54.10
22290;DHT22;11313;50.116;8.424;2022-09-09T02:44:18;25.00;54.10
22290;DHT22;11313;50.116;8.424;2022-09-09T02:46:58;25.00;54.10
22290;DHT22;11313;50.116;8.424;2022-09-09T02:52:05;25.00;54.10
22290;DHT22;11313;50.116;8.424;2022-09-09T02:54:33;25.10;54.80
22290;DHT22;11313;50.116;8.424;2022-09-09T02:57:23;25.10;54.10
22290;DHT22;11313;50.116;8.424;2022-09-09T02:59:50;25.10;54.20
22290;DHT22;11313;50.116;8.424;2022-09-09T03:02:18;25.10;54.20
22290;DHT22;11313;50.116;8.424;2022-09-09T03:04:44;25.00;54.10
22290;DHT22;11313;50.116;8.424;2022-09-09T03:07:10;25.10;54.10
22290;DHT22;11313;50.116;8.424;2022-09-09T03:09:36;25.10;54.20
22290;DHT22;11313;50.116;8.424;2022-09-09T03:12:02;25.10;54.20
22290;DHT22;11313;50.116;8.424;2022-09-09T03:14:29;25.10;54.20
22290;DHT22;11313;50.116;8.424;2022-09-09T03:16:55;25.10;54.20
22290;DHT22;11313;50.116;8.424;2022-09-09T03:19:23;25.10;54.20
22290;DHT22;11313;50.116;8.424;2022-09-09T03:21:48;25.10;54.20
22290;DHT22;11313;50.116;8.424;2022-09-09T03:24:14;25.10;54.20
22290;DHT22;11313;50.116;8.424;2022-09-09T03:26:41;25.10;54.20
22290;DHT22;11313;50.116;8.424;2022-09-09T03:29:10;25.10;54.20
22290;DHT22;11313;50.116;8.424;2022-09-09T03:31:37;25.10;54.20
22290;DHT22;11313;50.116;8.424;2022-09-09T03:34:02;25.10;54.20
22290;DHT22;11313;50.116;8.424;2022-09-09T03:36:28;25.00;54.10
22290;DHT22;11313;50.116;8.424;2022-09-09T03:38:54;25.10;54.20
22290;DHT22;11313;50.116;8.424;2022-09-09T03:41:21;25.10;54.20
22290;DHT22;11313;50.116;8.424;2022-09-09T03:43:50;25.10;54.20
22290;DHT22;11313;50.116;8.424;2022-09-09T03:46:15;25.10;54.20
22290;DHT22;11313;50.116;8.424;2022-09-09T03:48:41;25.10;54.20
22290;DHT22;11313;50.116;8.424;2022-09-09T03:51:07;25.10;54.20
22290;DHT22;11313;50.116;8.424;2022-09-09T03:53:32;25.10;54.20
22290;DHT22;11313;50.116;8.424;2022-09-09T03:55:58;25.10;54.20
22290;DHT22;11313;50.116;8.424;2022-09-09T03:58:26;25.10;54.20
22290;DHT22;11313;50.116;8.424;2022-09-09T04:01:09;25.10;54.20
22290;DHT22;11313;50.116;8.424;2022-09-09T04:03:35;25.10;54.20
22290;DHT22;11313;50.116;8.424;2022-09-09T04:06:03;25.10;54.20
22290;DHT22;11313;50.116;8.424;2022-09-09T04:08:29;25.10;54.10
22290;DHT22;11313;50.116;8.424;2022-09-09T04:10:58;25.10;54.10
22290;DHT22;11313;50.116;8.424;2022-09-09T04:13:25;25.10;54.20
22290;DHT22;11313;50.116;8.424;2022-09-09T04:15:53;25.10;54.20
22290;DHT22;11313;50.116;8.424;2022-09-09T04:18:19;25.10;54.10
22290;DHT22;11313;50.116;8.424;2022-09-09T04:20:48;25.10;54.20
22290;DHT22;11313;50.116;8.424;2022-09-09T04:23:15;25.10;54.20
22290;DHT22;11313;50.116;8.424;2022-09-09T04:25:49;25.10;54.30
22290;DHT22;11313;50.116;8.424;2022-09-09T04:28:17;25.10;54.30
22290;DHT22;11313;50.116;8.424;2022-09-09T04:30:43;25.10;54.30
22290;DHT22;11313;50.116;8.424;2022-09-09T04:33:09;25.10;54.30
22290;DHT22;11313;50.116;8.424;2022-09-09T04:35:35;25.10;54.90
22290;DHT22;11313;50.116;8.424;2022-09-09T04:38:01;25.10;54.30
22290;DHT22;11313;50.116;8.424;2022-09-09T04:40:28;25.10;54.30
22290;DHT22;11313;50.116;8.424;2022-09-09T04:42:55;25.10;54.30
22290;DHT22;11313;50.116;8.424;2022-09-09T04:45:20;25.10;54.30
22290;DHT22;11313;50.116;8.424;2022-09-09T04:47:46;25.10;54.30
22290;DHT22;11313;50.116;8.424;2022-09-09T04:50:12;25.10;54.30
22290;DHT22;11313;50.116;8.424;2022-09-09T04:52:37;25.10;54.30
22290;DHT22;11313;50.116;8.424;2022-09-09T04:55:03;25.10;54.30
22290;DHT22;11313;50.116;8.424;2022-09-09T04:57:29;25.10;54.30
22290;DHT22;11313;50.116;8.424;2022-09-09T04:59:57;25.10;54.30
22290;DHT22;11313;50.116;8.424;2022-09-09T05:02:23;25.10;54.30
22290;DHT22;11313;50.116;8.424;2022-09-09T05:04:48;25.10;54.30
22290;DHT22;11313;50.116;8.424;2022-09-09T05:07:15;25.10;54.40
22290;DHT22;11313;50.116;8.424;2022-09-09T05:09:40;25.10;54.40
22290;DHT22;11313;50.116;8.424;2022-09-09T05:12:06;25.10;54.40
22290;DHT22;11313;50.116;8.424;2022-09-09T05:14:31;25.10;54.30
22290;DHT22;11313;50.116;8.424;2022-09-09T05:16:57;25.10;54.30
22290;DHT22;11313;50.116;8.424;2022-09-09T05:19:23;25.10;54.40
22290;DHT22;11313;50.116;8.424;2022-09-09T05:21:49;25.10;54.30
22290;DHT22;11313;50.116;8.424;2022-09-09T05:24:15;25.10;54.40
22290;DHT22;11313;50.116;8.424;2022-09-09T05:26:41;25.10;54.30
22290;DHT22;11313;50.116;8.424;2022-09-09T05:29:06;25.10;55.00
22290;DHT22;11313;50.116;8.424;2022-09-09T05:31:33;25.10;54.30
22290;DHT22;11313;50.116;8.424;2022-09-09T05:33:59;25.10;54.30
22290;DHT22;11313;50.116;8.424;2022-09-09T05:36:24;25.10;54.30
22290;DHT22;11313;50.116;8.424;2022-09-09T05:38:50;25.10;54.30
22290;DHT22;11313;50.116;8.424;2022-09-09T05:41:16;25.10;54.30
22290;DHT22;11313;50.116;8.424;2022-09-09T05:43:43;25.10;54.30
22290;DHT22;11313;50.116;8.424;2022-09-09T05:48:44;25.00;55.00
22290;DHT22;11313;50.116;8.424;2022-09-09T05:51:18;25.20;54.60
22290;DHT22;11313;50.116;8.424;2022-09-09T05:53:44;25.10;54.60
22290;DHT22;11313;50.116;8.424;2022-09-09T05:56:18;25.10;54.60
22290;DHT22;11313;50.116;8.424;2022-09-09T05:58:44;25.10;54.70
22290;DHT22;11313;50.116;8.424;2022-09-09T06:01:24;25.10;54.60
22290;DHT22;11313;50.116;8.424;2022-09-09T06:03:50;25.10;54.70
22290;DHT22;11313;50.116;8.424;2022-09-09T06:06:19;25.10;54.70
22290;DHT22;11313;50.116;8.424;2022-09-09T06:08:50;25.10;54.70
22290;DHT22;11313;50.116;8.424;2022-09-09T06:11:21;25.20;54.80
22290;DHT22;11313;50.116;8.424;2022-09-09T06:13:47;25.10;54.80
22290;DHT22;11313;50.116;8.424;2022-09-09T06:16:18;25.10;54.80
22290;DHT22;11313;50.116;8.424;2022-09-09T06:18:44;25.10;55.00
22290;DHT22;11313;50.116;8.424;2022-09-09T06:21:15;25.20;55.30
22290;DHT22;11313;50.116;8.424;2022-09-09T06:23:41;25.10;55.40
22290;DHT22;11313;50.116;8.424;2022-09-09T06:26:14;25.10;55.60
22290;DHT22;11313;50.116;8.424;2022-09-09T06:28:40;25.20;55.70
22290;DHT22;11313;50.116;8.424;2022-09-09T06:31:08;25.20;55.80
22290;DHT22;11313;50.116;8.424;2022-09-09T06:33:39;25.20;55.80
22290;DHT22;11313;50.116;8.424;2022-09-09T06:36:07;25.10;55.80
22290;DHT22;11313;50.116;8.424;2022-09-09T06:38:35;25.20;55.80
22290;DHT22;11313;50.116;8.424;2022-09-09T06:41:01;25.10;55.80
22290;DHT22;11313;50.116;8.424;2022-09-09T06:43:27;25.10;55.80
22290;DHT22;11313;50.116;8.424;2022-09-09T06:45:56;25.20;55.80
22290;DHT22;11313;50.116;8.424;2022-09-09T06:48:22;25.20;55.80
22290;DHT22;11313;50.116;8.424;2022-09-09T06:50:48;25.10;55.70
22290;DHT22;11313;50.116;8.424;2022-09-09T06:53:16;25.20;55.80
22290;DHT22;11313;50.116;8.424;2022-09-09T06:55:44;25.10;55.60
22290;DHT22;11313;50.116;8.424;2022-09-09T06:58:10;25.10;55.60
22290;DHT22;11313;50.116;8.424;2022-09-09T07:00:36;25.10;55.50
22290;DHT22;11313;50.116;8.424;2022-09-09T07:03:04;25.10;55.50
22290;DHT22;11313;50.116;8.424;2022-09-09T07:05:30;25.20;55.50
22290;DHT22;11313;50.116;8.424;2022-09-09T07:07:56;25.10;55.40
22290;DHT22;11313;50.116;8.424;2022-09-09T07:10:21;25.10;55.40
22290;DHT22;11313;50.116;8.424;2022-09-09T07:12:53;25.10;55.30
22290;DHT22;11313;50.116;8.424;2022-09-09T07:15:20;25.10;55.30
22290;DHT22;11313;50.116;8.424;2022-09-09T07:17:46;25.10;55.20
22290;DHT22;11313;50.116;8.424;2022-09-09T07:20:13;25.20;55.30
22290;DHT22;11313;50.116;8.424;2022-09-09T07:22:40;25.10;55.10
22290;DHT22;11313;50.116;8.424;2022-09-09T07:25:06;25.10;55.10
22290;DHT22;11313;50.116;8.424;2022-09-09T07:27:32;25.10;55.10
22290;DHT22;11313;50.116;8.424;2022-09-09T07:29:58;25.20;55.10
22290;DHT22;11313;50.116;8.424;2022-09-09T07:32:24;25.10;55.00
22290;DHT22;11313;50.116;8.424;2022-09-09T07:34:51;25.10;55.00
22290;DHT22;11313;50.116;8.424;2022-09-09T07:37:16;25.20;55.00
22290;DHT22;11313;50.116;8.424;2022-09-09T07:39:43;25.10;54.90
22290;DHT22;11313;50.116;8.424;2022-09-09T07:42:09;25.20;54.90
22290;DHT22;11313;50.116;8.424;2022-09-09T07:44:36;25.20;54.90
22290;DHT22;11313;50.116;8.424;2022-09-09T07:47:05;25.20;54.90
22290;DHT22;11313;50.116;8.424;2022-09-09T07:49:31;25.20;54.90
22290;DHT22;11313;50.116;8.424;2022-09-09T07:51:57;25.10;54.70
22290;DHT22;11313;50.116;8.424;2022-09-09T07:54:23;25.20;54.90
22290;DHT22;11313;50.116;8.424;2022-09-09T07:56:50;25.10;54.70
22290;DHT22;11313;50.116;8.424;2022-09-09T07:59:16;25.10;54.70
22290;DHT22;11313;50.116;8.424;2022-09-09T08:01:49;25.20;54.80
22290;DHT22;11313;50.116;8.424;2022-09-09T08:04:18;25.20;54.70
22290;DHT22;11313;50.116;8.424;2022-09-09T08:06:50;25.30;54.70
22290;DHT22;11313;50.116;8.424;2022-09-09T08:09:17;25.20;54.60
22290;DHT22;11313;50.116;8.424;2022-09-09T08:11:43;25.20;54.60
22290;DHT22;11313;50.116;8.424;2022-09-09T08:14:10;25.20;54.60
22290;DHT22;11313;50.116;8.424;2022-09-09T08:16:45;25.20;54.60
22290;DHT22;11313;50.116;8.424;2022-09-09T08:19:11;25.20;54.60
22290;DHT22;11313;50.116;8.424;2022-09-09T08:21:38;25.20;54.50
22290;DHT22;11313;50.116;8.424;2022-09-09T08:24:05;25.20;54.50
22290;DHT22;11313;50.116;8.424;2022-09-09T08:26:37;25.20;54.50
22290;DHT22;11313;50.116;8.424;2022-09-09T08:29:04;25.20;54.50
22290;DHT22;11313;50.116;8.424;2022-09-09T08:33:58;25.20;54.50
22290;DHT22;11313;50.116;8.424;2022-09-09T08:36:33;25.20;54.50
22290;DHT22;11313;50.116;8.424;2022-09-09T08:39:00;25.30;54.60
22290;DHT22;11313;50.116;8.424;2022-09-09T08:50:30;25.20;54.40
22290;DHT22;11313;50.116;8.424;2022-09-09T08:53:05;25.10;54.30
22290;DHT22;11313;50.116;8.424;2022-09-09T08:55:51;25.20;54.30
22290;DHT22;11313;50.116;8.424;2022-09-09T08:58:25;25.20;54.30
22290;DHT22;11313;50.116;8.424;2022-09-09T09:03:41;25.20;54.30
22290;DHT22;11313;50.116;8.424;2022-09-09T09:09:25;25.20;54.30
22290;DHT22;11313;50.116;8.424;2022-09-09T09:11:55;25.20;54.20
22290;DHT22;11313;50.116;8.424;2022-09-09T09:14:30;25.20;54.20
22290;DHT22;11313;50.116;8.424;2022-09-09T09:17:00;25.20;54.30
22290;DHT22;11313;50.116;8.424;2022-09-09T09:19:29;25.20;54.20
22290;DHT22;11313;50.116;8.424;2022-09-09T09:24:51;25.20;54.20
22290;DHT22;11313;50.116;8.424;2022-09-09T09:30:22;25.20;54.20
22290;DHT22;11313;50.116;8.424;2022-09-09T09:33:13;25.20;54.20
22290;DHT22;11313;50.116;8.424;2022-09-09T09:35:41;25.10;54.10
22290;DHT22;11313;50.116;8.424;2022-09-09T09:38:20;25.20;54.20
22290;DHT22;11313;50.116;8.424;2022-09-09T09:40:55;25.20;54.20
22290;DHT22;11313;50.116;8.424;2022-09-09T09:43:34;25.20;54.20
22290;DHT22;11313;50.116;8.424;2022-09-09T09:46:00;25.20;54.10
22290;DHT22;11313;50.116;8.424;2022-09-09T09:48:27;25.20;54.10
22290;DHT22;11313;50.116;8.424;2022-09-09T09:51:03;25.20;54.10
22290;DHT22;11313;50.116;8.424;2022-09-09T09:53:34;25.20;54.10
22290;DHT22;11313;50.116;8.424;2022-09-09T09:56:03;25.20;54.10
22290;DHT22;11313;50.116;8.424;2022-09-09T09:58:54;25.20;54.10
22290;DHT22;11313;50.116;8.424;2022-09-09T10:01:29;25.20;54.10
22290;DHT22;11313;50.116;8.424;2022-09-09T10:04:15;25.20;54.10
22290;DHT22;11313;50.116;8.424;2022-09-09T10:06:43;25.20;54.10
22290;DHT22;11313;50.116;8.424;2022-09-09T10:12:20;25.20;54.10
22290;DHT22;11313;50.116;8.424;2022-09-09T10:14:59;25.20;54.00
22290;DHT22;11313;50.116;8.424;2022-09-09T10:17:36;25.20;54.00
22290;DHT22;11313;50.116;8.424;2022-09-09T10:23:26;25.20;54.00
22290;DHT22;11313;50.116;8.424;2022-09-09T10:29:01;25.30;54.10
22290;DHT22;11313;50.116;8.424;2022-09-09T10:34:47;25.20;54.00
22290;DHT22;11313;50.116;8.424;2022-09-09T10:48:46;25.30;54.00
22290;DHT22;11313;50.116;8.424;2022-09-09T10:56:26;25.20;53.90
22290;DHT22;11313;50.116;8.424;2022-09-09T10:59:24;25.20;53.90
22290;DHT22;11313;50.116;8.424;2022-09-09T11:02:03;25.20;53.90
22290;DHT22;11313;50.116;8.424;2022-09-09T11:04:38;25.20;53.90
22290;DHT22;11313;50.116;8.424;2022-09-09T11:07:08;25.20;53.90
22290;DHT22;11313;50.116;8.424;2022-09-09T11:09:39;25.20;54.00
22290;DHT22;11313;50.116;8.424;2022-09-09T11:12:13;25.20;53.90
22290;DHT22;11313;50.116;8.424;2022-09-09T11:14:51;25.20;53.90
22290;DHT22;11313;50.116;8.424;2022-09-09T11:17:32;25.20;53.90
22290;DHT22;11313;50.116;8.424;2022-09-09T12:42:53;25.30;53.80
22290;DHT22;11313;50.116;8.424;2022-09-09T12:45:34;25.30;53.80
22290;DHT22;11313;50.116;8.424;2022-09-09T12:48:26;25.30;53.80
22290;DHT22;11313;50.116;8.424;2022-09-09T12:51:33;25.30;53.80
22290;DHT22;11313;50.116;8.424;2022-09-09T12:54:15;25.30;53.80
22290;DHT22;11313;50.116;8.424;2022-09-09T12:56:53;25.30;53.70
22290;DHT22;11313;50.116;8.424;2022-09-09T12:59:34;25.30;53.70
22290;DHT22;11313;50.116;8.424;2022-09-09T13:02:19;25.30;53.70
22290;DHT22;11313;50.116;8.424;2022-09-09T13:04:50;25.20;53.70
22290;DHT22;11313;50.116;8.424;2022-09-09T13:07:18;25.40;53.70
22290;DHT22;11313;50.116;8.424;2022-09-09T13:09:58;25.30;53.70
22290;DHT22;11313;50.116;8.424;2022-09-09T13:12:55;25.30;53.70
22290;DHT22;11313;50.116;8.424;2022-09-09T13:29:26;25.40;53.70
22290;DHT22;11313;50.116;8.424;2022-09-09T14:37:31;25.30;53.60
22290;DHT22;11313;50.116;8.424;2022-09-09T14:39:57;25.30;54.20
22290;DHT22;11313;50.116;8.424;2022-09-09T14:42:23;25.30;53.60
22290;DHT22;11313;50.116;8.424;2022-09-09T14:44:48;25.50;53.80
22290;DHT22;11313;50.116;8.424;2022-09-09T14:47:14;25.30;53.70
22290;DHT22;11313;50.116;8.424;2022-09-09T14:49:43;25.30;54.30
22290;DHT22;11313;50.116;8.424;2022-09-09T14:52:08;25.30;53.70
22290;DHT22;11313;50.116;8.424;2022-09-09T14:54:34;25.30;53.70
22290;DHT22;11313;50.116;8.424;2022-09-09T14:57:00;25.30;53.70
22290;DHT22;11313;50.116;8.424;2022-09-09T14:59:26;25.40;53.80
22290;DHT22;11313;50.116;8.424;2022-09-09T15:02:00;25.30;53.70
22290;DHT22;11313;50.116;8.424;2022-09-09T15:04:39;25.30;53.80
22290;DHT22;11313;50.116;8.424;2022-09-09T15:07:11;25.30;53.80
22290;DHT22;11313;50.116;8.424;2022-09-09T15:09:48;25.30;53.80
22290;DHT22;11313;50.116;8.424;2022-09-09T15:18:50;25.40;53.90
22290;DHT22;11313;50.116;8.424;2022-09-09T15:39:48;25.40;53.90
22290;DHT22;11313;50.116;8.424;2022-09-09T16:22:07;25.20;53.60
22290;DHT22;11313;50.116;8.424;2022-09-09T17:05:08;25.40;53.60
22290;DHT22;11313;50.116;8.424;2022-09-09T17:36:45;25.30;53.50
22290;DHT22;11313;50.116;8.424;2022-09-09T17:49:50;25.40;53.60
22290;DHT22;11313;50.116;8.424;2022-09-09T17:52:20;25.40;53.70
22290;DHT22;11313;50.116;8.424;2022-09-09T17:54:46;25.30;53.60
22290;DHT22;11313;50.116;8.424;2022-09-09T17:57:14;25.40;53.70
22290;DHT22;11313;50.116;8.424;2022-09-09T18:03:17;25.30;53.60
22290;DHT22;11313;50.116;8.424;2022-09-09T18:06:01;25.30;53.60
22290;DHT22;11313;50.116;8.424;2022-09-09T18:08:52;25.40;53.70
22290;DHT22;11313;50.116;8.424;2022-09-09T18:15:34;25.40;53.70
22290;DHT22;11313;50.116;8.424;2022-09-09T18:18:48;25.40;53.70
22290;DHT22;11313;50.116;8.424;2022-09-09T18:22:04;25.40;53.70
22290;DHT22;11313;50.116;8.424;2022-09-09T18:29:23;25.40;54.40
22290;DHT22;11313;50.116;8.424;2022-09-09T18:35:16;25.50;53.80
22290;DHT22;11313;50.116;8.424;2022-09-09T18:37:42;25.30;53.70
22290;DHT22;11313;50.116;8.424;2022-09-09T18:40:15;25.40;53.80
22290;DHT22;11313;50.116;8.424;2022-09-09T18:42:52;25.40;53.80
22290;DHT22;11313;50.116;8.424;2022-09-09T18:45:18;25.30;53.70
22290;DHT22;11313;50.116;8.424;2022-09-09T18:47:51;25.40;53.80
22290;DHT22;11313;50.116;8.424;2022-09-09T18:50:23;25.40;53.70
22290;DHT22;11313;50.116;8.424;2022-09-09T18:53:00;25.40;53.70
22290;DHT22;11313;50.116;8.424;2022-09-09T18:55:36;25.30;53.70
22290;DHT22;11313;50.116;8.424;2022-09-09T18:58:19;25.30;53.70
22290;DHT22;11313;50.116;8.424;2022-09-09T19:00:50;25.40;53.70
22290;DHT22;11313;50.116;8.424;2022-09-09T19:03:22;25.40;53.70
22290;DHT22;11313;50.116;8.424;2022-09-09T19:05:59;25.40;53.70
22290;DHT22;11313;50.116;8.424;2022-09-09T19:08:41;25.40;53.70
22290;DHT22;11313;50.116;8.424;2022-09-09T19:11:18;25.40;53.60
22290;DHT22;11313;50.116;8.424;2022-09-09T19:14:01;25.40;53.70
22290;DHT22;11313;50.116;8.424;2022-09-09T19:16:48;25.40;53.60
22290;DHT22;11313;50.116;8.424;2022-09-09T19:22:48;25.40;53.60
22290;DHT22;11313;50.116;8.424;2022-09-09T19:25:49;25.40;53.60
22290;DHT22;11313;50.116;8.424;2022-09-09T19:28:23;25.30;53.60
22290;DHT22;11313;50.116;8.424;2022-09-09T19:31:30;25.40;53.60
22290;DHT22;11313;50.116;8.424;2022-09-09T19:34:03;25.40;53.60
22290;DHT22;11313;50.116;8.424;2022-09-09T19:36:29;25.40;53.60
22290;DHT22;11313;50.116;8.424;2022-09-09T19:39:10;25.40;53.60
22290;DHT22;11313;50.116;8.424;2022-09-09T19:41:42;25.40;53.60
22290;DHT22;11313;50.116;8.424;2022-09-09T19:44:16;25.30;53.50
22290;DHT22;11313;50.116;8.424;2022-09-09T19:46:55;25.40;53.60
22290;DHT22;11313;50.116;8.424;2022-09-09T19:49:31;25.30;53.50
22290;DHT22;11313;50.116;8.424;2022-09-09T19:52:05;25.40;53.60
22290;DHT22;11313;50.116;8.424;2022-09-09T19:55:05;25.30;53.50
22290;DHT22;11313;50.116;8.424;2022-09-09T19:57:34;25.40;53.60
22290;DHT22;11313;50.116;8.424;2022-09-09T20:00:17;25.40;53.60
22290;DHT22;11313;50.116;8.424;2022-09-09T20:02:57;25.40;53.60
22290;DHT22;11313;50.116;8.424;2022-09-09T20:05:31;25.40;53.60
22290;DHT22;11313;50.116;8.424;2022-09-09T20:08:16;25.40;53.60
22290;DHT22;11313;50.116;8.424;2022-09-09T20:10:53;25.40;53.60
22290;DHT22;11313;50.116;8.424;2022-09-09T20:13:22;25.40;53.50
22290;DHT22;11313;50.116;8.424;2022-09-09T20:16:02;25.30;53.50
22290;DHT22;11313;50.116;8.424;2022-09-09T20:18:48;25.40;53.60
22290;DHT22;11313;50.116;8.424;2022-09-09T20:21:21;25.40;53.60
22290;DHT22;11313;50.116;8.424;2022-09-09T20:23:48;25.40;53.50
22290;DHT22;11313;50.116;8.424;2022-09-09T20:26:30;25.30;53.50
22290;DHT22;11313;50.116;8.424;2022-09-09T20:29:01;25.40;53.60
22290;DHT22;11313;50.116;8.424;2022-09-09T20:31:41;25.40;53.50
22290;DHT22;11313;50.116;8.424;2022-09-09T20:34:17;25.40;53.50
22290;DHT22;11313;50.116;8.424;2022-09-09T20:37:02;25.30;53.50
22290;DHT22;11313;50.116;8.424;2022-09-09T20:39:47;25.40;53.50
22290;DHT22;11313;50.116;8.424;2022-09-09T20:45:36;25.40;53.50
22290;DHT22;11313;50.116;8.424;2022-09-09T20:50:54;25.40;53.50
22290;DHT22;11313;50.116;8.424;2022-09-09T20:53:24;25.30;53.50
22290;DHT22;11313;50.116;8.424;2022-09-09T20:56:02;25.40;53.50
22290;DHT22;11313;50.116;8.424;2022-09-09T20:58:46;25.30;53.50
22290;DHT22;11313;50.116;8.424;2022-09-09T21:01:18;25.40;53.50
22290;DHT22;11313;50.116;8.424;2022-09-09T21:03:47;25.30;53.50
22290;DHT22;11313;50.116;8.424;2022-09-09T21:06:15;25.40;53.60
22290;DHT22;11313;50.116;8.424;2022-09-09T21:08:51;25.40;53.60
22290;DHT22;11313;50.116;8.424;2022-09-09T21:11:24;25.40;53.60
22290;DHT22;11313;50.116;8.424;2022-09-09T21:14:10;25.40;53.60
22290;DHT22;11313;50.116;8.424;2022-09-09T21:16:36;25.40;53.60
22290;DHT22;11313;50.116;8.424;2022-09-09T21:19:10;25.30;53.50
22290;DHT22;11313;50.116;8.424;2022-09-09T21:21:39;25.30;53.50
22290;DHT22;11313;50.116;8.424;2022-09-09T21:24:08;25.30;53.60
22290;DHT22;11313;50.116;8.424;2022-09-09T21:26:39;25.30;53.50
22290;DHT22;11313;50.116;8.424;2022-09-09T21:29:05;25.40;53.60
22290;DHT22;11313;50.116;8.424;2022-09-09T21:31:45;25.30;53.60
22290;DHT22;11313;50.116;8.424;2022-09-09T21:34:24;25.40;53.60
22290;DHT22;11313;50.116;8.424;2022-09-09T21:36:50;25.40;53.60
22290;DHT22;11313;50.116;8.424;2022-09-09T21:39:15;25.30;54.20
22290;DHT22;11313;50.116;8.424;2022-09-09T21:41:43;25.40;53.70
22290;DHT22;11313;50.116;8.424;2022-09-09T21:44:12;25.40;53.70
22290;DHT22;11313;50.116;8.424;2022-09-09T21:46:39;25.30;53.60
22290;DHT22;11313;50.116;8.424;2022-09-09T21:49:14;25.40;53.70
22290;DHT22;11313;50.116;8.424;2022-09-09T21:51:40;25.30;53.60
22290;DHT22;11313;50.116;8.424;2022-09-09T21:54:15;25.40;53.70
22290;DHT22;11313;50.116;8.424;2022-09-09T21:56:44;25.40;53.70
22290;DHT22;11313;50.116;8.424;2022-09-09T21:59:21;25.40;53.70
22290;DHT22;11313;50.116;8.424;2022-09-09T22:01:47;25.40;53.70
22290;DHT22;11313;50.116;8.424;2022-09-09T22:04:18;25.30;53.70
22290;DHT22;11313;50.116;8.424;2022-09-09T22:06:46;25.40;53.70
22290;DHT22;11313;50.116;8.424;2022-09-09T22:09:17;25.40;53.80
22290;DHT22;11313;50.116;8.424;2022-09-09T22:11:43;25.40;53.80
22290;DHT22;11313;50.116;8.424;2022-09-09T22:14:08;25.30;53.70
22290;DHT22;11313;50.116;8.424;2022-09-09T22:16:34;25.30;53.70
22290;DHT22;11313;50.116;8.424;2022-09-09T22:19:00;25.30;53.70
22290;DHT22;11313;50.116;8.424;2022-09-09T22:21:28;25.30;53.80
22290;DHT22;11313;50.116;8.424;2022-09-09T22:24:00;25.40;53.80
22290;DHT22;11313;50.116;8.424;2022-09-09T22:26:28;25.40;53.80
22290;DHT22;11313;50.116;8.424;2022-09-09T22:28:55;25.30;53.80
22290;DHT22;11313;50.116;8.424;2022-09-09T22:31:22;25.30;53.70
22290;DHT22;11313;50.116;8.424;2022-09-09T22:33:49;25.30;53.80
22290;DHT22;11313;50.116;8.424;2022-09-09T22:36:18;25.30;53.70
22290;DHT22;11313;50.116;8.424;2022-09-09T22:38:51;25.40;53.80
22290;DHT22;11313;50.116;8.424;2022-09-09T22:41:18;25.30;53.80
22290;DHT22;11313;50.116;8.424;2022-09-09T22:43:45;25.40;53.80
22290;DHT22;11313;50.116;8.424;2022-09-09T22:46:13;25.30;53.80
22290;DHT22;11313;50.116;8.424;2022-09-09T22:48:39;25.30;53.80
22290;DHT22;11313;50.116;8.424;2022-09-09T22:51:12;25.30;53.80
22290;DHT22;11313;50.116;8.424;2022-09-09T22:53:40;25.30;53.80
22290;DHT22;11313;50.116;8.424;2022-09-09T22:56:11;25.30;53.80
22290;DHT22;11313;50.116;8.424;2022-09-09T22:58:36;25.40;53.80
22290;DHT22;11313;50.116;8.424;2022-09-09T23:01:17;25.30;53.80
22290;DHT22;11313;50.116;8.424;2022-09-09T23:03:44;25.30;53.80